Time;durP1;ratioP1;P1;durP2;ratioP2;P2;SDS_P1;SDS_P2;PMS_P1;PMS_P2;Temp;Humidity;BMP_temperature;BMP_pressure;BME280_temperature;BME280_humidity;BME280_pressure;Samples;Min_cycle;Max_cycle;Signal;HPM_P1;HPM_P2
2023/05/12 00:02:10;;;;;;;17.70;10.00;;;;;;;;;;110979;1250;22529;-77
2023/05/12 00:04:39;;;;;;;17.50;11.10;;;;;;;;;;110955;1249;22382;-78
2023/05/12 00:07:06;;;;;;;19.50;12.60;;;;;;;;;;110913;1249;22911;-77
2023/05/12 00:09:32;;;;;;;17.90;10.50;;;;;;;;;;110691;1251;22344;-77
2023/05/12 00:11:58;;;;;;;19.10;11.10;;;;;;;;;;110739;1251;22187;-77
2023/05/12 00:14:25;;;;;;;23.00;11.10;;;;;;;;;;110839;1250;22181;-77
2023/05/12 00:16:51;;;;;;;20.70;12.10;;;;;;;;;;110930;1250;22295;-77
2023/05/12 00:19:18;;;;;;;18.90;12.30;;;;;;;;;;108760;1250;22633;-77
2023/05/12 00:21:45;;;;;;;16.50;11.00;;;;;;;;;;107664;1253;23023;-78
2023/05/12 00:24:11;;;;;;;21.40;13.80;;;;;;;;;;108227;1249;26478;-77
2023/05/12 00:26:37;;;;;;;21.40;14.90;;;;;;;;;;110907;1249;22874;-78
2023/05/12 00:29:04;;;;;;;22.50;13.40;;;;;;;;;;110805;1247;23120;-78
2023/05/12 00:31:30;;;;;;;21.90;13.20;;;;;;;;;;111015;1247;23144;-77
2023/05/12 00:33:56;;;;;;;22.20;13.40;;;;;;;;;;111021;1247;22451;-77
2023/05/12 00:36:23;;;;;;;21.30;12.50;;;;;;;;;;111060;1247;22361;-79
2023/05/12 00:38:49;;;;;;;18.50;11.10;;;;;;;;;;111041;1247;22341;-78
2023/05/12 00:41:15;;;;;;;21.80;11.00;;;;;;;;;;110997;1247;22303;-78
2023/05/12 00:43:42;;;;;;;18.90;11.10;;;;;;;;;;111025;1247;22323;-77
2023/05/12 00:46:08;;;;;;;19.40;11.90;;;;;;;;;;111019;1247;22452;-77
2023/05/12 00:48:34;;;;;;;21.70;11.20;;;;;;;;;;110993;1247;22342;-78
2023/05/12 00:51:01;;;;;;;19.00;11.30;;;;;;;;;;111049;1247;22498;-79
2023/05/12 00:53:27;;;;;;;16.50;11.50;;;;;;;;;;111027;1247;22359;-79
2023/05/12 00:55:54;;;;;;;19.50;9.50;;;;;;;;;;110856;1247;22394;-78
2023/05/12 00:58:20;;;;;;;16.60;9.50;;;;;;;;;;110885;1249;22442;-77
2023/05/12 01:00:47;;;;;;;16.10;10.00;;;;;;;;;;110753;1250;23086;-77
2023/05/12 01:03:13;;;;;;;15.00;9.40;;;;;;;;;;111023;1247;22364;-77
2023/05/12 01:05:54;;;;;;;17.50;10.60;;;;;;;;;;110997;1247;23059;-78
2023/05/12 01:08:22;;;;;;;15.90;10.00;;;;;;;;;;110431;1251;23007;-77
2023/05/12 01:10:48;;;;;;;17.80;10.60;;;;;;;;;;110536;1247;22501;-78
2023/05/12 01:13:15;;;;;;;17.10;10.30;;;;;;;;;;109475;1247;24235;-77
2023/05/12 01:15:46;;;;;;;19.20;10.60;;;;;;;;;;107946;1247;23275;-77
2023/05/12 01:18:13;;;;;;;18.30;10.80;;;;;;;;;;107958;1248;22518;-77
2023/05/12 01:20:41;;;;;;;17.40;10.00;;;;;;;;;;110343;1247;22271;-77
2023/05/12 01:23:07;;;;;;;17.80;10.60;;;;;;;;;;111022;1247;22224;-77
2023/05/12 01:25:33;;;;;;;16.20;10.50;;;;;;;;;;109519;1247;24927;-77
2023/05/12 01:28:00;;;;;;;17.20;10.20;;;;;;;;;;107687;1248;22517;-78
2023/05/12 01:30:26;;;;;;;16.60;10.90;;;;;;;;;;110040;1247;22343;-78
2023/05/12 01:32:53;;;;;;;21.40;11.40;;;;;;;;;;111005;1247;22433;-77
2023/05/12 01:35:19;;;;;;;17.80;10.50;;;;;;;;;;111009;1247;22220;-77
2023/05/12 01:37:46;;;;;;;17.80;10.70;;;;;;;;;;111023;1247;22557;-77
2023/05/12 01:40:12;;;;;;;18.10;10.30;;;;;;;;;;111057;1247;22307;-79
2023/05/12 01:42:40;;;;;;;16.00;10.00;;;;;;;;;;111002;1247;22422;-78
2023/05/12 01:45:06;;;;;;;19.70;10.00;;;;;;;;;;111014;1247;22237;-77
2023/05/12 01:47:33;;;;;;;15.00;9.30;;;;;;;;;;111042;1247;22336;-78
2023/05/12 01:49:59;;;;;;;15.60;10.00;;;;;;;;;;111079;1247;22490;-78
2023/05/12 01:52:26;;;;;;;18.40;10.50;;;;;;;;;;111019;1247;22506;-78
2023/05/12 01:54:53;;;;;;;15.60;10.00;;;;;;;;;;109825;1248;61119;-78
2023/05/12 01:57:19;;;;;;;15.60;9.40;;;;;;;;;;107723;1248;59024;-77
2023/05/12 01:59:46;;;;;;;20.70;10.00;;;;;;;;;;108687;1247;163094;-78
2023/05/12 02:02:12;;;;;;;17.40;10.30;;;;;;;;;;107742;1250;44056;-78
2023/05/12 02:04:38;;;;;;;16.50;9.40;;;;;;;;;;107582;1250;58398;-77
2023/05/12 02:07:05;;;;;;;16.40;9.10;;;;;;;;;;107685;1253;22583;-78
2023/05/12 02:09:31;;;;;;;16.70;8.50;;;;;;;;;;107713;1250;22530;-77
2023/05/12 02:11:57;;;;;;;23.30;10.40;;;;;;;;;;107733;1250;24082;-78
2023/05/12 02:14:24;;;;;;;16.70;9.90;;;;;;;;;;107680;1249;22661;-77
2023/05/12 02:16:51;;;;;;;17.30;11.00;;;;;;;;;;107722;1251;22544;-77
2023/05/12 02:19:18;;;;;;;19.30;9.90;;;;;;;;;;107684;1253;25242;-78
2023/05/12 02:21:45;;;;;;;15.90;10.40;;;;;;;;;;107695;1252;23638;-79
2023/05/12 02:24:12;;;;;;;20.60;10.10;;;;;;;;;;107719;1250;22498;-77
2023/05/12 02:26:38;;;;;;;15.70;9.50;;;;;;;;;;107705;1250;22999;-77
2023/05/12 02:29:04;;;;;;;19.30;11.10;;;;;;;;;;108168;1247;22475;-77
2023/05/12 02:31:31;;;;;;;17.00;11.70;;;;;;;;;;111030;1247;22461;-78
2023/05/12 02:33:57;;;;;;;16.80;9.50;;;;;;;;;;110838;1247;58670;-77
2023/05/12 02:36:24;;;;;;;19.00;9.60;;;;;;;;;;111029;1247;22233;-78
2023/05/12 02:38:50;;;;;;;23.70;9.50;;;;;;;;;;111004;1247;22422;-77
2023/05/12 02:41:17;;;;;;;21.10;11.00;;;;;;;;;;111038;1247;22294;-77
2023/05/12 02:43:43;;;;;;;21.20;10.50;;;;;;;;;;110981;1247;22386;-77
2023/05/12 02:46:10;;;;;;;17.90;10.10;;;;;;;;;;108380;1247;24224;-78
2023/05/12 02:48:36;;;;;;;22.40;10.90;;;;;;;;;;107862;1247;22542;-77
2023/05/12 02:51:02;;;;;;;20.40;11.20;;;;;;;;;;107896;1247;32592;-78
2023/05/12 02:53:29;;;;;;;16.50;10.60;;;;;;;;;;109700;1247;22397;-78
2023/05/12 02:55:55;;;;;;;18.30;10.50;;;;;;;;;;109851;1248;22556;-77
2023/05/12 02:58:22;;;;;;;18.50;10.50;;;;;;;;;;107737;1250;25218;-77
2023/05/12 03:00:48;;;;;;;18.60;10.10;;;;;;;;;;109600;1251;59034;-78
2023/05/12 03:03:14;;;;;;;12.20;9.10;;;;;;;;;;107558;1253;61166;-77
2023/05/12 03:05:41;;;;;;;16.60;8.90;;;;;;;;;;107713;1251;22961;-78
2023/05/12 03:08:07;;;;;;;16.90;9.60;;;;;;;;;;107549;1253;58526;-78
2023/05/12 03:10:33;;;;;;;17.50;9.90;;;;;;;;;;109921;1249;22869;-78
2023/05/12 03:12:59;;;;;;;19.60;11.80;;;;;;;;;;110882;1250;22436;-77
2023/05/12 03:15:26;;;;;;;19.10;10.30;;;;;;;;;;109029;1251;56694;-77
2023/05/12 03:17:52;;;;;;;17.80;11.10;;;;;;;;;;107692;1250;22518;-77
2023/05/12 03:20:18;;;;;;;15.90;9.80;;;;;;;;;;107660;1249;22557;-77
2023/05/12 03:22:45;;;;;;;14.80;10.30;;;;;;;;;;107676;1250;23262;-78
2023/05/12 03:25:11;;;;;;;19.40;11.40;;;;;;;;;;107680;1250;22527;-78
2023/05/12 03:27:37;;;;;;;19.90;9.90;;;;;;;;;;107641;1250;23002;-77
2023/05/12 03:30:04;;;;;;;17.40;9.50;;;;;;;;;;107840;1247;22534;-77
2023/05/12 03:32:31;;;;;;;22.90;10.80;;;;;;;;;;107860;1250;22528;-77
2023/05/12 03:34:57;;;;;;;15.90;9.10;;;;;;;;;;107939;1247;27543;-77
2023/05/12 03:37:23;;;;;;;16.40;11.20;;;;;;;;;;107903;1248;25321;-77
2023/05/12 03:39:50;;;;;;;20.90;10.80;;;;;;;;;;107915;1251;25312;-78
2023/05/12 03:42:16;;;;;;;16.20;9.50;;;;;;;;;;107915;1248;22510;-78
2023/05/12 03:44:42;;;;;;;19.90;10.90;;;;;;;;;;107844;1247;24177;-77
2023/05/12 03:47:09;;;;;;;19.50;10.40;;;;;;;;;;107861;1248;22858;-78
2023/05/12 03:49:36;;;;;;;22.60;10.10;;;;;;;;;;107812;1248;25333;-78
2023/05/12 03:52:02;;;;;;;21.30;11.70;;;;;;;;;;107921;1247;22532;-77
2023/05/12 03:54:29;;;;;;;51.60;18.10;;;;;;;;;;107913;1253;22526;-77
2023/05/12 03:56:56;;;;;;;61.00;26.80;;;;;;;;;;107771;1250;25265;-78
2023/05/12 03:59:22;;;;;;;79.30;30.40;;;;;;;;;;107663;1251;22534;-78
2023/05/12 04:01:48;;;;;;;59.60;25.20;;;;;;;;;;107846;1247;26432;-78
2023/05/12 04:04:16;;;;;;;45.10;20.70;;;;;;;;;;108501;1247;22235;-78
2023/05/12 04:06:42;;;;;;;35.80;16.90;;;;;;;;;;107981;1252;22519;-77
2023/05/12 04:09:09;;;;;;;32.50;17.10;;;;;;;;;;108142;1247;22674;-77
2023/05/12 04:11:35;;;;;;;34.20;14.70;;;;;;;;;;107911;1248;22516;-77
2023/05/12 04:14:02;;;;;;;25.90;14.40;;;;;;;;;;107903;1248;24071;-77
2023/05/12 04:16:28;;;;;;;21.60;11.80;;;;;;;;;;107851;1248;22581;-77
2023/05/12 04:18:56;;;;;;;23.00;11.00;;;;;;;;;;107845;1248;22542;-77
2023/05/12 04:21:22;;;;;;;19.10;10.20;;;;;;;;;;107682;1248;22520;-76
2023/05/12 04:23:52;;;;;;;27.50;13.30;;;;;;;;;;107896;1248;24189;-77
2023/05/12 04:26:18;;;;;;;20.90;11.00;;;;;;;;;;107845;1248;22564;-77
2023/05/12 04:28:44;;;;;;;14.60;10.20;;;;;;;;;;107877;1247;22518;-77
2023/05/12 04:31:10;;;;;;;14.10;9.80;;;;;;;;;;107922;1251;22831;-77
2023/05/12 04:33:37;;;;;;;16.50;9.70;;;;;;;;;;107822;1253;22954;-77
2023/05/12 04:36:04;;;;;;;15.20;10.30;;;;;;;;;;107921;1248;22670;-76
2023/05/12 04:38:31;;;;;;;15.70;10.80;;;;;;;;;;107868;1251;25382;-76
2023/05/12 04:40:57;;;;;;;19.10;10.30;;;;;;;;;;107653;1247;24914;-76
2023/05/12 04:43:24;;;;;;;15.60;9.50;;;;;;;;;;107880;1247;25489;-78
2023/05/12 04:45:52;;;;;;;19.90;10.80;;;;;;;;;;107957;1252;25385;-76
2023/05/12 04:48:19;;;;;;;13.10;9.10;;;;;;;;;;107867;1248;24192;-76
2023/05/12 04:50:47;;;;;;;24.20;12.20;;;;;;;;;;108310;1248;25324;-76
2023/05/12 04:53:16;;;;;;;26.30;9.90;;;;;;;;;;107897;1247;22531;-76
2023/05/12 04:55:44;;;;;;;23.20;8.90;;;;;;;;;;107879;1248;24272;-77
2023/05/12 04:58:12;;;;;;;15.80;9.70;;;;;;;;;;107662;1247;23142;-76
2023/05/12 05:00:38;;;;;;;18.90;11.10;;;;;;;;;;107824;1252;24211;-76
2023/05/12 05:03:05;;;;;;;15.80;11.60;;;;;;;;;;107874;1253;22645;-77
2023/05/12 05:05:32;;;;;;;15.10;10.70;;;;;;;;;;107911;1253;22544;-76
2023/05/12 05:07:58;;;;;;;16.90;10.10;;;;;;;;;;107770;1248;24240;-77
2023/05/12 05:10:24;;;;;;;15.50;10.10;;;;;;;;;;107781;1248;22531;-77
2023/05/12 05:12:51;;;;;;;17.40;10.20;;;;;;;;;;107786;1251;25106;-77
2023/05/12 05:15:18;;;;;;;19.50;10.70;;;;;;;;;;107734;1248;22520;-76
2023/05/12 05:17:48;;;;;;;16.10;9.80;;;;;;;;;;107974;1248;25330;-78
2023/05/12 05:20:14;;;;;;;20.80;10.80;;;;;;;;;;107889;1248;25493;-77
2023/05/12 05:22:41;;;;;;;15.50;10.60;;;;;;;;;;107870;1248;22552;-76
2023/05/12 05:25:08;;;;;;;15.50;9.90;;;;;;;;;;108558;1251;22524;-78
2023/05/12 05:27:34;;;;;;;17.60;10.70;;;;;;;;;;107865;1248;26359;-78
2023/05/12 05:30:01;;;;;;;13.90;9.30;;;;;;;;;;107693;1254;22841;-78
2023/05/12 05:32:27;;;;;;;21.10;9.90;;;;;;;;;;107946;1253;22529;-77
2023/05/12 05:34:53;;;;;;;19.80;10.60;;;;;;;;;;107846;1248;22522;-78
2023/05/12 05:37:20;;;;;;;19.10;10.00;;;;;;;;;;107911;1251;22925;-77
2023/05/12 05:39:46;;;;;;;18.50;10.60;;;;;;;;;;107906;1248;25834;-78
2023/05/12 05:42:12;;;;;;;16.30;9.80;;;;;;;;;;107903;1248;22519;-76
2023/05/12 05:44:39;;;;;;;17.10;9.10;;;;;;;;;;107909;1251;25389;-78
2023/05/12 05:47:05;;;;;;;14.80;9.70;;;;;;;;;;108405;1248;22966;-77
2023/05/12 05:49:31;;;;;;;15.30;9.90;;;;;;;;;;108151;1252;22637;-78
2023/05/12 05:51:58;;;;;;;15.10;10.60;;;;;;;;;;108055;1248;22546;-76
2023/05/12 05:54:24;;;;;;;17.30;11.60;;;;;;;;;;107997;1248;24229;-79
2023/05/12 05:56:51;;;;;;;28.30;12.40;;;;;;;;;;108005;1248;22522;-77
2023/05/12 05:59:19;;;;;;;16.10;9.40;;;;;;;;;;108398;1251;22575;-77
2023/05/12 06:01:45;;;;;;;15.10;8.60;;;;;;;;;;108124;1251;24075;-78
2023/05/12 06:04:11;;;;;;;12.80;8.40;;;;;;;;;;108068;1248;24116;-78
2023/05/12 06:06:38;;;;;;;12.60;7.30;;;;;;;;;;107975;1253;22518;-78
2023/05/12 06:09:04;;;;;;;10.40;7.60;;;;;;;;;;108479;1253;22540;-77
2023/05/12 06:11:31;;;;;;;13.50;8.10;;;;;;;;;;108289;1252;23187;-77
2023/05/12 06:13:57;;;;;;;12.20;8.30;;;;;;;;;;108337;1248;22562;-77
2023/05/12 06:16:23;;;;;;;14.20;9.20;;;;;;;;;;108112;1251;22698;-77
2023/05/12 06:18:49;;;;;;;20.80;9.70;;;;;;;;;;108181;1251;22526;-76
2023/05/12 06:21:16;;;;;;;14.60;7.90;;;;;;;;;;108429;1248;23257;-77
2023/05/12 06:23:42;;;;;;;18.00;8.30;;;;;;;;;;108394;1247;25313;-77
2023/05/12 06:26:08;;;;;;;11.10;8.00;;;;;;;;;;108366;1250;22530;-78
2023/05/12 06:28:35;;;;;;;13.70;8.00;;;;;;;;;;108175;1250;22667;-77
2023/05/12 06:31:01;;;;;;;13.40;8.40;;;;;;;;;;108066;1253;22943;-77
2023/05/12 06:33:27;;;;;;;16.50;8.60;;;;;;;;;;108313;1248;22524;-78
2023/05/12 06:35:54;;;;;;;11.40;8.90;;;;;;;;;;108449;1252;25492;-78
2023/05/12 06:38:20;;;;;;;11.90;8.00;;;;;;;;;;108344;1251;23025;-78
2023/05/12 06:40:46;;;;;;;12.60;7.10;;;;;;;;;;108117;1250;22526;-76
2023/05/12 06:43:13;;;;;;;12.10;7.90;;;;;;;;;;108084;1253;24193;-76
2023/05/12 06:45:40;;;;;;;11.60;7.60;;;;;;;;;;108104;1252;25399;-76
2023/05/12 06:48:08;;;;;;;9.90;7.70;;;;;;;;;;108068;1248;22553;-79
2023/05/12 06:50:34;;;;;;;21.00;8.10;;;;;;;;;;108062;1248;22665;-76
2023/05/12 06:53:00;;;;;;;16.90;8.00;;;;;;;;;;108264;1252;24916;-78
2023/05/12 06:55:27;;;;;;;12.00;7.40;;;;;;;;;;107940;1248;25294;-78
2023/05/12 06:57:54;;;;;;;9.80;7.10;;;;;;;;;;108129;1248;23118;-77
2023/05/12 07:00:24;;;;;;;11.20;7.50;;;;;;;;;;108108;1252;22623;-77
2023/05/12 07:02:50;;;;;;;9.30;6.80;;;;;;;;;;108301;1248;25384;-78
2023/05/12 07:05:17;;;;;;;9.60;6.30;;;;;;;;;;108288;1248;25534;-77
2023/05/12 07:07:43;;;;;;;17.50;6.40;;;;;;;;;;108438;1248;22684;-79
2023/05/12 07:10:10;;;;;;;12.00;6.30;;;;;;;;;;108657;1248;22960;-77
2023/05/12 07:12:37;;;;;;;13.50;7.20;;;;;;;;;;108540;1248;22521;-77
2023/05/12 07:15:03;;;;;;;9.60;7.20;;;;;;;;;;108482;1252;27698;-78
2023/05/12 07:17:30;;;;;;;11.10;6.50;;;;;;;;;;108392;1254;23543;-77
2023/05/12 07:19:56;;;;;;;9.10;6.40;;;;;;;;;;108566;1248;22522;-77
2023/05/12 07:22:22;;;;;;;8.40;6.30;;;;;;;;;;108578;1247;22244;-79
2023/05/12 07:24:49;;;;;;;8.90;6.00;;;;;;;;;;109040;1247;22860;-78
2023/05/12 07:27:16;;;;;;;10.30;6.50;;;;;;;;;;108045;1247;22507;-78
2023/05/12 07:29:42;;;;;;;11.00;6.20;;;;;;;;;;108038;1248;24275;-79
2023/05/12 07:32:08;;;;;;;8.10;5.80;;;;;;;;;;107852;1253;25295;-79
2023/05/12 07:34:35;;;;;;;13.10;5.80;;;;;;;;;;107909;1252;22527;-79
2023/05/12 07:37:02;;;;;;;14.40;6.60;;;;;;;;;;107922;1253;23156;-77
2023/05/12 07:39:31;;;;;;;11.40;5.10;;;;;;;;;;108039;1249;22560;-79
2023/05/12 07:41:58;;;;;;;14.70;5.60;;;;;;;;;;108124;1252;22647;-77
2023/05/12 07:44:24;;;;;;;7.40;5.50;;;;;;;;;;107982;1251;22550;-79
2023/05/12 07:46:51;;;;;;;13.60;6.20;;;;;;;;;;107964;1248;24357;-79
2023/05/12 07:49:17;;;;;;;7.50;5.20;;;;;;;;;;108696;1247;22257;-77
2023/05/12 07:51:43;;;;;;;9.30;6.00;;;;;;;;;;109740;1248;24425;-77
2023/05/12 07:54:10;;;;;;;14.80;5.80;;;;;;;;;;108471;1253;22247;-80
2023/05/12 07:56:36;;;;;;;8.20;5.20;;;;;;;;;;108276;1251;22512;-79
2023/05/12 07:59:03;;;;;;;8.50;5.20;;;;;;;;;;108015;1248;24248;-80
2023/05/12 08:01:29;;;;;;;13.50;8.50;;;;;;;;;;108014;1248;22533;-79
2023/05/12 08:03:55;;;;;;;15.80;8.70;;;;;;;;;;107960;1248;22618;-77
2023/05/12 08:06:22;;;;;;;12.90;7.00;;;;;;;;;;109298;1248;23413;-78
2023/05/12 08:08:48;;;;;;;9.00;5.40;;;;;;;;;;110426;1248;22563;-79
2023/05/12 08:11:15;;;;;;;12.10;5.70;;;;;;;;;;108182;1253;24849;-79
2023/05/12 08:13:41;;;;;;;8.80;5.30;;;;;;;;;;107940;1253;22546;-77
2023/05/12 08:16:07;;;;;;;15.90;7.20;;;;;;;;;;108042;1247;22900;-77
2023/05/12 08:18:34;;;;;;;13.60;6.40;;;;;;;;;;108079;1248;22640;-77
2023/05/12 08:21:00;;;;;;;17.20;8.00;;;;;;;;;;107964;1248;22973;-77
2023/05/12 08:23:26;;;;;;;15.40;6.80;;;;;;;;;;107964;1247;22648;-79
2023/05/12 08:25:53;;;;;;;9.20;4.90;;;;;;;;;;107990;1248;22604;-77
2023/05/12 08:28:20;;;;;;;7.60;4.60;;;;;;;;;;107934;1248;27422;-77
2023/05/12 08:30:46;;;;;;;7.80;4.50;;;;;;;;;;108006;1252;22517;-77
2023/05/12 08:33:12;;;;;;;8.50;4.40;;;;;;;;;;108028;1252;22545;-79
2023/05/12 08:35:39;;;;;;;10.10;5.50;;;;;;;;;;107926;1248;25281;-79
2023/05/12 08:38:05;;;;;;;11.20;4.70;;;;;;;;;;107982;1247;22528;-80
2023/05/12 08:40:33;;;;;;;9.80;4.90;;;;;;;;;;107983;1251;23616;-79
2023/05/12 08:43:23;;;;;;;12.00;5.30;;;;;;;;;;108007;1248;22565;-80
2023/05/12 08:45:50;;;;;;;8.80;4.60;;;;;;;;;;109179;1247;22610;-78
2023/05/12 08:48:16;;;;;;;6.60;3.70;;;;;;;;;;107890;1251;22568;-78
2023/05/12 08:50:43;;;;;;;6.80;3.40;;;;;;;;;;107997;1247;22566;-79
2023/05/12 08:53:10;;;;;;;8.10;3.60;;;;;;;;;;107846;1251;23236;-79
2023/05/12 08:55:38;;;;;;;5.00;3.60;;;;;;;;;;108026;1252;23243;-77
2023/05/12 08:58:04;;;;;;;7.90;3.10;;;;;;;;;;108240;1248;24275;-80
2023/05/12 09:00:31;;;;;;;6.30;3.80;;;;;;;;;;107963;1247;25332;-77
2023/05/12 09:02:58;;;;;;;6.90;3.70;;;;;;;;;;108147;1248;22515;-79
2023/05/12 09:05:24;;;;;;;7.70;3.80;;;;;;;;;;108061;1247;22953;-78
2023/05/12 09:07:51;;;;;;;5.20;3.40;;;;;;;;;;108171;1247;22554;-77
2023/05/12 09:10:17;;;;;;;11.80;3.40;;;;;;;;;;107910;1248;23313;-77
2023/05/12 09:12:44;;;;;;;6.10;1.90;;;;;;;;;;108065;1248;22773;-78
2023/05/12 09:15:14;;;;;;;3.70;1.80;;;;;;;;;;107990;1247;23221;-77
2023/05/12 09:17:41;;;;;;;2.50;1.70;;;;;;;;;;107954;1254;22522;-79
2023/05/12 09:20:09;;;;;;;4.70;1.90;;;;;;;;;;107899;1250;23287;-77
2023/05/12 09:22:35;;;;;;;3.60;1.80;;;;;;;;;;107811;1254;22485;-78
2023/05/12 09:25:13;;;;;;;2.70;1.50;;;;;;;;;;107985;1247;22531;-78
2023/05/12 09:27:39;;;;;;;6.00;2.10;;;;;;;;;;108015;1248;24273;-79
2023/05/12 09:30:06;;;;;;;4.00;2.00;;;;;;;;;;107817;1247;22710;-78
2023/05/12 09:32:33;;;;;;;2.30;1.70;;;;;;;;;;108074;1253;24208;-77
2023/05/12 09:35:06;;;;;;;5.60;1.80;;;;;;;;;;108002;1253;22532;-77
2023/05/12 09:37:33;;;;;;;3.10;1.80;;;;;;;;;;107988;1247;22945;-79
2023/05/12 09:40:00;;;;;;;2.70;1.60;;;;;;;;;;108173;1247;22650;-79
2023/05/12 09:42:27;;;;;;;2.80;1.80;;;;;;;;;;108152;1248;25389;-77
2023/05/12 09:44:58;;;;;;;6.10;2.70;;;;;;;;;;108093;1247;24363;-76
2023/05/12 09:47:30;;;;;;;2.80;1.90;;;;;;;;;;108065;1248;22550;-79
2023/05/12 09:49:58;;;;;;;5.10;2.10;;;;;;;;;;108144;1252;22522;-77
2023/05/12 09:52:24;;;;;;;6.00;1.90;;;;;;;;;;107954;1247;22638;-76
2023/05/12 09:54:51;;;;;;;5.20;1.70;;;;;;;;;;107927;1248;26849;-77
2023/05/12 09:57:17;;;;;;;4.70;1.90;;;;;;;;;;107977;1248;22539;-79
2023/05/12 09:59:44;;;;;;;6.00;2.20;;;;;;;;;;108041;1251;22576;-79
2023/05/12 10:02:10;;;;;;;4.20;1.90;;;;;;;;;;107808;1248;22515;-79
2023/05/12 10:04:46;;;;;;;2.50;1.30;;;;;;;;;;107848;1248;22531;-78
2023/05/12 10:07:12;;;;;;;7.90;2.70;;;;;;;;;;107790;1248;24217;-79
2023/05/12 10:09:40;;;;;;;7.30;2.00;;;;;;;;;;107864;1253;24214;-79
2023/05/12 10:12:07;;;;;;;7.20;2.40;;;;;;;;;;108250;1251;25240;-77
2023/05/12 10:14:34;;;;;;;3.00;1.60;;;;;;;;;;108183;1247;22522;-77
2023/05/12 10:17:00;;;;;;;8.70;2.20;;;;;;;;;;107936;1247;24339;-77
2023/05/12 10:19:30;;;;;;;6.20;2.30;;;;;;;;;;108387;1252;23145;-77
2023/05/12 10:21:56;;;;;;;4.80;2.20;;;;;;;;;;108008;1247;22871;-77
2023/05/12 10:24:25;;;;;;;4.10;2.20;;;;;;;;;;108110;1251;22691;-80
2023/05/12 10:26:52;;;;;;;10.00;3.60;;;;;;;;;;108159;1249;25290;-77
2023/05/12 10:29:18;;;;;;;5.60;2.80;;;;;;;;;;108352;1248;22995;-80
2023/05/12 10:31:45;;;;;;;2.40;1.80;;;;;;;;;;108208;1247;22614;-77
2023/05/12 10:34:20;;;;;;;5.80;2.90;;;;;;;;;;108071;1247;23899;-78
2023/05/12 10:36:48;;;;;;;3.90;1.70;;;;;;;;;;107871;1248;25446;-79
2023/05/12 10:39:14;;;;;;;7.30;2.40;;;;;;;;;;110742;1247;22492;-79
2023/05/12 10:41:41;;;;;;;3.70;1.80;;;;;;;;;;108493;1247;22594;-77
2023/05/12 10:44:10;;;;;;;3.50;2.00;;;;;;;;;;108540;1250;23183;-78
2023/05/12 10:46:37;;;;;;;5.40;2.40;;;;;;;;;;108123;1247;26330;-76
2023/05/12 10:49:09;;;;;;;4.40;2.40;;;;;;;;;;108223;1247;22567;-77
2023/05/12 10:51:35;;;;;;;4.80;2.30;;;;;;;;;;108066;1250;24202;-77
2023/05/12 10:54:02;;;;;;;3.80;2.10;;;;;;;;;;108059;1248;22566;-79
2023/05/12 10:56:29;;;;;;;3.00;1.80;;;;;;;;;;107876;1247;24231;-79
2023/05/12 10:59:18;;;;;;;4.30;1.90;;;;;;;;;;108071;1247;23485;-80
2023/05/12 11:01:57;;;;;;;8.40;3.20;;;;;;;;;;108056;1248;22890;-77
2023/05/12 11:04:33;;;;;;;6.70;3.60;;;;;;;;;;107860;1247;23749;-77
2023/05/12 11:07:00;;;;;;;4.50;2.70;;;;;;;;;;107909;1248;22726;-80
2023/05/12 11:09:27;;;;;;;6.60;2.60;;;;;;;;;;108033;1247;22865;-77
2023/05/12 11:11:53;;;;;;;4.20;2.80;;;;;;;;;;107648;1248;22523;-81
2023/05/12 11:14:19;;;;;;;8.30;3.10;;;;;;;;;;108062;1248;22525;-78
2023/05/12 11:16:46;;;;;;;7.50;2.50;;;;;;;;;;108004;1248;24308;-77
2023/05/12 11:19:12;;;;;;;6.10;2.70;;;;;;;;;;107885;1248;22632;-79
2023/05/12 11:21:39;;;;;;;5.50;3.00;;;;;;;;;;107919;1247;23140;-79
2023/05/12 11:24:06;;;;;;;4.60;2.50;;;;;;;;;;107920;1247;24239;-77
2023/05/12 11:26:33;;;;;;;4.60;1.90;;;;;;;;;;107759;1253;22545;-77
2023/05/12 11:29:01;;;;;;;5.70;2.10;;;;;;;;;;108060;1247;24185;-79
2023/05/12 11:31:27;;;;;;;;;;;;;;;;;;108108;1247;23210;-79
2023/05/12 11:34:01;;;;;;;7.20;1.60;;;;;;;;;;108419;1247;23299;-80
2023/05/12 11:36:27;;;;;;;5.60;1.90;;;;;;;;;;107846;1253;22639;-79
2023/05/12 11:38:53;;;;;;;5.10;2.80;;;;;;;;;;107787;1247;22553;-79
2023/05/12 11:41:20;;;;;;;7.90;1.80;;;;;;;;;;108018;1248;22546;-79
2023/05/12 11:43:47;;;;;;;3.10;2.10;;;;;;;;;;108017;1248;22518;-77
2023/05/12 11:46:22;;;;;;;5.60;2.10;;;;;;;;;;107729;1252;26395;-80
2023/05/12 11:48:53;;;;;;;7.20;3.00;;;;;;;;;;107959;1247;22590;-80
2023/05/12 11:51:19;;;;;;;5.70;2.10;;;;;;;;;;108309;1247;22540;-79
2023/05/12 11:53:45;;;;;;;5.80;2.10;;;;;;;;;;108252;1247;25864;-79
2023/05/12 11:56:22;;;;;;;3.30;1.90;;;;;;;;;;108016;1247;22519;-77
2023/05/12 11:58:52;;;;;;;10.30;2.80;;;;;;;;;;110849;1247;23122;-80
2023/05/12 12:01:19;;;;;;;4.50;2.80;;;;;;;;;;108323;1248;22652;-80
2023/05/12 12:03:47;;;;;;;7.60;2.80;;;;;;;;;;107732;1253;22536;-77
2023/05/12 12:06:14;;;;;;;5.40;2.00;;;;;;;;;;107343;1247;61155;-77
2023/05/12 12:08:50;;;;;;;2.90;1.80;;;;;;;;;;107127;1248;61337;-79
2023/05/12 12:11:17;;;;;;;3.60;2.40;;;;;;;;;;106986;1247;61298;-77
2023/05/12 12:13:55;;;;;;;5.90;2.10;;;;;;;;;;107041;1252;61333;-79
2023/05/12 12:16:25;;;;;;;6.90;1.80;;;;;;;;;;107173;1248;61285;-78
2023/05/12 12:18:51;;;;;;;4.20;1.70;;;;;;;;;;107264;1247;61339;-78
2023/05/12 12:21:18;;;;;;;3.80;2.10;;;;;;;;;;107312;1248;61243;-78
2023/05/12 12:23:44;;;;;;;5.10;1.90;;;;;;;;;;107184;1253;61438;-77
2023/05/12 12:26:10;;;;;;;2.90;1.60;;;;;;;;;;107010;1247;61282;-79
2023/05/12 12:28:36;;;;;;;8.30;2.10;;;;;;;;;;107069;1251;61429;-77
2023/05/12 12:31:03;;;;;;;5.30;1.70;;;;;;;;;;107472;1248;61678;-77
2023/05/12 12:33:30;;;;;;;3.60;1.60;;;;;;;;;;107259;1254;61410;-78
2023/05/12 12:35:56;;;;;;;2.40;1.80;;;;;;;;;;107084;1248;61314;-77
2023/05/12 12:38:22;;;;;;;8.80;7.50;;;;;;;;;;107746;1252;61351;-77
2023/05/12 12:40:49;;;;;;;5.50;2.60;;;;;;;;;;107063;1248;61323;-77
2023/05/12 12:43:15;;;;;;;4.50;2.20;;;;;;;;;;107104;1248;61336;-77
2023/05/12 12:45:41;;;;;;;3.70;2.20;;;;;;;;;;106969;1248;61355;-77
2023/05/12 12:48:08;;;;;;;6.60;2.30;;;;;;;;;;107256;1252;61110;-77
2023/05/12 12:50:34;;;;;;;4.40;2.70;;;;;;;;;;107224;1250;61239;-80
2023/05/12 12:53:01;;;;;;;7.40;2.50;;;;;;;;;;106901;1253;61244;-79
2023/05/12 12:55:27;;;;;;;4.20;2.10;;;;;;;;;;106917;1251;61329;-77
2023/05/12 12:57:53;;;;;;;4.60;2.20;;;;;;;;;;107171;1253;61346;-80
2023/05/12 13:00:22;;;;;;;3.90;2.20;;;;;;;;;;107132;1253;61326;-79
2023/05/12 13:02:49;;;;;;;4.80;2.10;;;;;;;;;;107022;1248;61339;-77
2023/05/12 13:05:15;;;;;;;4.30;1.90;;;;;;;;;;107294;1251;61324;-79
2023/05/12 13:07:42;;;;;;;5.40;2.20;;;;;;;;;;106972;1247;61317;-77
2023/05/12 13:10:08;;;;;;;6.40;2.40;;;;;;;;;;107008;1247;61238;-77
2023/05/12 13:12:35;;;;;;;7.20;2.10;;;;;;;;;;107179;1250;61243;-77
2023/05/12 13:15:01;;;;;;;3.60;2.10;;;;;;;;;;107101;1254;61330;-77
2023/05/12 13:17:28;;;;;;;5.90;1.80;;;;;;;;;;106986;1251;61211;-77
2023/05/12 13:19:54;;;;;;;2.70;1.90;;;;;;;;;;107231;1248;61314;-77
2023/05/12 13:22:21;;;;;;;3.90;2.40;;;;;;;;;;107393;1248;61288;-77
2023/05/12 13:24:47;;;;;;;5.10;1.80;;;;;;;;;;107171;1253;63434;-77
2023/05/12 13:27:14;;;;;;;11.90;2.40;;;;;;;;;;107086;1251;61253;-79
2023/05/12 13:29:41;;;;;;;10.50;2.70;;;;;;;;;;107154;1248;59238;-79
2023/05/12 13:32:07;;;;;;;3.40;2.30;;;;;;;;;;107215;1247;61355;-79
2023/05/12 13:34:33;;;;;;;3.30;2.10;;;;;;;;;;106985;1248;61201;-80
2023/05/12 13:37:00;;;;;;;3.70;2.30;;;;;;;;;;107100;1247;61218;-80
2023/05/12 13:39:26;;;;;;;2.90;2.20;;;;;;;;;;107175;1247;61285;-80
2023/05/12 13:41:52;;;;;;;4.00;2.30;;;;;;;;;;107236;1252;61244;-80
2023/05/12 13:44:19;;;;;;;69.60;44.50;;;;;;;;;;107032;1252;61340;-78
2023/05/12 13:46:45;;;;;;;360.20;226.90;;;;;;;;;;107534;1247;61328;-80
2023/05/12 13:49:12;;;;;;;42.50;26.30;;;;;;;;;;109823;1247;58975;-76
2023/05/12 13:51:38;;;;;;;44.60;29.50;;;;;;;;;;110063;1247;59080;-76
2023/05/12 13:54:05;;;;;;;113.80;78.40;;;;;;;;;;109688;1248;58931;-76
2023/05/12 13:56:31;;;;;;;39.00;28.20;;;;;;;;;;107199;1251;61349;-77
2023/05/12 13:58:58;;;;;;;6.00;3.60;;;;;;;;;;107054;1247;473030;-76
2023/05/12 14:01:24;;;;;;;25.70;15.30;;;;;;;;;;106963;1252;61442;-77
2023/05/12 14:03:50;;;;;;;38.20;23.90;;;;;;;;;;107101;1247;61273;-77
2023/05/12 14:06:17;;;;;;;15.40;8.20;;;;;;;;;;107019;1252;61254;-75
2023/05/12 14:08:44;;;;;;;5.20;2.90;;;;;;;;;;106875;1253;61353;-78
2023/05/12 14:11:10;;;;;;;9.90;2.30;;;;;;;;;;106687;1247;61352;-78
2023/05/12 14:13:36;;;;;;;4.80;2.60;;;;;;;;;;106808;1253;61282;-78
2023/05/12 14:16:03;;;;;;;4.00;2.60;;;;;;;;;;106822;1248;61253;-80
2023/05/12 14:18:29;;;;;;;8.20;4.90;;;;;;;;;;106845;1247;61327;-78